Time;durP1;ratioP1;P1;durP2;ratioP2;P2;SDS_P1;SDS_P2;PMS_P1;PMS_P2;Temp;Humidity;BMP_temperature;BMP_pressure;BME280_temperature;BME280_humidity;BME280_pressure;Samples;Min_cycle;Max_cycle;Signal;HPM_P1;HPM_P2
2021/04/10 00:00:33;;;;;;;48.50;19.77;;;;;;;3.61;52.67;98894.81;2164650;82;21161;-77
2021/04/10 00:03:37;;;;;;;47.30;17.07;;;;;;;3.59;52.92;98890.14;2177000;82;21126;-73
2021/04/10 00:06:39;;;;;;;48.45;17.80;;;;;;;3.54;52.98;98889.42;2143969;82;21315;-82
2021/04/10 00:09:40;;;;;;;38.78;16.02;;;;;;;3.46;53.13;98888.80;2181613;82;21692;-78
2021/04/10 00:12:42;;;;;;;47.10;16.82;;;;;;;3.35;53.39;98885.26;2172961;82;21277;-81
2021/04/10 00:15:44;;;;;;;58.00;21.05;;;;;;;3.24;53.82;98884.27;2259285;79;21260;-82
2021/04/10 00:18:47;;;;;;;73.05;24.95;;;;;;;3.21;53.66;98887.42;2259223;79;21704;-74
2021/04/10 00:21:49;;;;;;;44.20;16.50;;;;;;;3.16;54.14;98886.70;2259664;79;21274;-76
2021/04/10 00:24:51;;;;;;;39.65;14.33;;;;;;;3.16;54.27;98883.67;2259655;79;21284;-80
2021/04/10 00:27:53;;;;;;;36.53;13.20;;;;;;;3.14;54.34;98880.72;2259652;79;21285;-77
2021/04/10 00:31:06;;;;;;;;;;;;;;;3.15;54.38;98878.08;2261906;79;21697;-75
2021/04/10 00:34:00;;;;;;;52.03;19.62;;;;;;;3.09;54.40;98883.00;2225777;79;20419;-80
2021/04/10 00:37:02;;;;;;;51.55;19.98;;;;;;;3.10;54.78;98878.66;2259631;79;21309;-73
2021/04/10 00:40:04;;;;;;;53.83;20.50;;;;;;;3.09;54.88;98876.52;2259232;79;21280;-73
2021/04/10 00:43:06;;;;;;;48.13;17.75;;;;;;;3.10;55.10;98875.63;2259178;79;21292;-71
2021/04/10 00:46:08;;;;;;;44.75;17.12;;;;;;;3.10;55.07;98873.47;2259545;79;21268;-75
2021/04/10 00:49:10;;;;;;;44.60;17.90;;;;;;;3.12;54.95;98874.30;2259304;79;21264;-77
2021/04/10 00:52:13;;;;;;;47.23;17.07;;;;;;;3.16;54.94;98872.02;2259128;79;21146;-73
2021/04/10 00:55:15;;;;;;;41.45;15.98;;;;;;;3.18;55.15;98875.39;2259183;79;21300;-72
2021/04/10 00:58:16;;;;;;;45.58;16.00;;;;;;;3.26;55.16;98874.72;2259531;79;21272;-74
2021/04/10 01:01:18;;;;;;;55.12;18.90;;;;;;;3.29;54.96;98877.22;2259226;79;21265;-74
2021/04/10 01:04:20;;;;;;;43.87;16.25;;;;;;;3.29;55.07;98876.38;2227269;79;21249;-72
2021/04/10 01:07:22;;;;;;;46.33;17.62;;;;;;;3.32;55.13;98874.98;2261202;79;21772;-75
2021/04/10 01:10:24;;;;;;;35.38;13.85;;;;;;;3.36;55.75;98869.23;2266473;79;21133;-71
2021/04/10 01:13:26;;;;;;;42.80;15.58;;;;;;;3.33;55.28;98866.75;2266338;79;21249;-75
2021/04/10 01:16:29;;;;;;;38.23;14.13;;;;;;;3.34;55.42;98870.59;2266276;79;21296;-72
2021/04/10 01:19:31;;;;;;;39.75;15.05;;;;;;;3.35;55.62;98866.23;2266166;79;21815;-72
2021/04/10 01:22:33;;;;;;;39.67;20.10;;;;;;;3.43;55.43;98872.91;2266361;79;21161;-72
2021/04/10 01:25:36;;;;;;;36.23;13.38;;;;;;;3.53;55.55;98869.56;2236425;79;21625;-73
2021/04/10 01:28:37;;;;;;;49.95;18.73;;;;;;;3.44;55.45;98876.34;2266287;79;21264;-73
2021/04/10 01:31:39;;;;;;;37.60;14.90;;;;;;;3.51;55.47;98871.36;2266329;79;21260;-75
2021/04/10 01:34:42;;;;;;;37.93;14.90;;;;;;;3.51;55.61;98862.28;2266335;79;21284;-72
2021/04/10 01:37:44;;;;;;;40.33;16.25;;;;;;;3.46;55.62;98867.63;2266225;79;21134;-72
2021/04/10 01:40:45;;;;;;;36.63;14.65;;;;;;;3.47;55.76;98862.81;2266329;79;21113;-72
2021/04/10 01:43:48;;;;;;;33.58;13.40;;;;;;;3.57;55.74;98868.56;2266457;78;21268;-73
2021/04/10 01:46:49;;;;;;;41.55;14.95;;;;;;;3.63;55.71;98864.93;2266523;79;21253;-74
2021/04/10 01:49:51;;;;;;;37.80;13.95;;;;;;;3.63;55.72;98865.80;2266510;79;21764;-72
2021/04/10 01:52:53;;;;;;;38.08;13.98;;;;;;;3.68;55.68;98865.64;2266538;79;21264;-72
2021/04/10 01:55:55;;;;;;;37.25;12.20;;;;;;;3.71;55.68;98855.63;2266464;79;21288;-76
2021/04/10 01:58:57;;;;;;;36.55;13.68;;;;;;;3.75;55.58;98858.06;2266579;79;21697;-72
2021/04/10 02:01:59;;;;;;;33.10;12.20;;;;;;;3.76;55.58;98853.25;2236637;79;21301;-72
2021/04/10 02:05:01;;;;;;;35.13;12.75;;;;;;;3.73;55.64;98850.76;2266581;79;21300;-76
2021/04/10 02:08:03;;;;;;;34.45;12.98;;;;;;;3.83;55.74;98846.58;2263349;79;21692;-74
2021/04/10 02:11:05;;;;;;;35.55;13.25;;;;;;;3.83;55.64;98846.58;2259408;79;21284;-72
2021/04/10 02:14:07;;;;;;;37.20;12.50;;;;;;;3.83;55.67;98837.04;2259524;79;21708;-72
2021/04/10 02:17:09;;;;;;;33.80;13.32;;;;;;;3.77;55.65;98845.88;2259406;79;21303;-72
2021/04/10 02:20:12;;;;;;;34.92;12.18;;;;;;;3.78;55.80;98841.55;2259371;79;21404;-75
2021/04/10 02:23:14;;;;;;;36.55;14.98;;;;;;;3.74;55.68;98843.84;2259376;79;21554;-77
2021/04/10 02:26:16;;;;;;;38.30;14.00;;;;;;;3.73;55.80;98839.08;2259714;79;21289;-74
2021/04/10 02:29:18;;;;;;;37.03;13.58;;;;;;;3.74;55.97;98840.79;2259875;79;21169;-72
2021/04/10 02:32:20;;;;;;;38.78;13.68;;;;;;;3.73;56.01;98842.98;2259362;79;21272;-76
2021/04/10 02:35:23;;;;;;;36.20;13.05;;;;;;;3.72;56.02;98842.59;2259348;79;21157;-75
2021/04/10 02:38:25;;;;;;;34.27;12.98;;;;;;;3.70;56.02;98844.38;2259727;79;21142;-74
2021/04/10 02:41:27;;;;;;;42.45;14.13;;;;;;;3.63;56.12;98839.86;2227371;79;21285;-72
2021/04/10 02:44:29;;;;;;;36.50;13.40;;;;;;;3.63;56.34;98840.29;2259366;79;21779;-75
2021/04/10 02:47:30;;;;;;;35.65;14.13;;;;;;;3.59;56.19;98839.98;2259346;79;21701;-72
2021/04/10 02:50:32;;;;;;;35.55;12.85;;;;;;;3.55;56.09;98838.38;2259656;79;21126;-72
2021/04/10 02:53:35;;;;;;;34.65;13.10;;;;;;;3.46;56.30;98841.69;2259243;79;21268;-71
2021/04/10 02:56:37;;;;;;;33.13;12.55;;;;;;;3.43;56.52;98843.09;2259246;79;21693;-72
2021/04/10 02:59:39;;;;;;;34.60;13.30;;;;;;;3.33;56.65;98836.47;2259323;79;21284;-72
2021/04/10 03:02:41;;;;;;;32.88;12.55;;;;;;;3.29;56.84;98837.03;2259339;79;21299;-72
2021/04/10 03:05:43;;;;;;;34.78;13.18;;;;;;;3.27;56.83;98837.97;2259331;79;21265;-72
2021/04/10 03:08:45;;;;;;;35.05;13.22;;;;;;;3.25;56.87;98844.50;2263645;79;21312;-77
2021/04/10 03:11:47;;;;;;;36.33;14.98;;;;;;;3.25;56.92;98837.18;2266624;79;21719;-76
2021/04/10 03:14:49;;;;;;;40.90;18.92;;;;;;;3.27;56.95;98838.80;2266507;79;21268;-75
2021/04/10 03:17:51;;;;;;;35.08;14.40;;;;;;;3.26;56.90;98838.42;2266463;79;21300;-72
2021/04/10 03:20:53;;;;;;;36.00;13.13;;;;;;;3.35;56.88;98839.02;2266474;79;21272;-79
2021/04/10 03:23:55;;;;;;;46.18;19.92;;;;;;;3.26;56.81;98834.54;2236612;79;21303;-78
2021/04/10 03:26:57;;;;;;;35.65;14.73;;;;;;;3.21;56.81;98829.94;2266485;79;21109;-72
2021/04/10 03:29:59;;;;;;;34.53;13.70;;;;;;;3.20;56.80;98826.09;2266467;79;21276;-76
2021/04/10 03:33:01;;;;;;;37.53;13.45;;;;;;;3.18;57.04;98814.94;2266476;79;21780;-74
2021/04/10 03:36:04;;;;;;;35.50;12.75;;;;;;;3.12;57.05;98822.45;2266453;79;21299;-77
2021/04/10 03:39:06;;;;;;;33.78;12.15;;;;;;;3.06;57.20;98831.27;2266428;79;21241;-77
2021/04/10 03:42:08;;;;;;;37.10;13.13;;;;;;;2.95;57.42;98833.33;2266458;79;21728;-73
2021/04/10 03:45:10;;;;;;;34.38;14.18;;;;;;;2.85;57.50;98839.67;2266561;79;21264;-79
2021/04/10 03:48:12;;;;;;;38.25;16.45;;;;;;;2.80;57.78;98843.67;2266439;79;21720;-76
2021/04/10 03:51:14;;;;;;;38.53;14.80;;;;;;;2.72;57.91;98836.59;2266427;79;21291;-73
2021/04/10 03:54:16;;;;;;;35.98;13.53;;;;;;;2.71;58.05;98841.36;2266895;79;21280;-76
2021/04/10 03:57:18;;;;;;;43.70;17.12;;;;;;;2.75;58.30;98846.86;2266579;79;21284;-73
2021/04/10 04:00:20;;;;;;;40.83;15.75;;;;;;;2.74;58.04;98848.61;2266442;79;21696;-74
2021/04/10 04:03:22;;;;;;;36.93;15.60;;;;;;;2.81;57.92;98842.78;2266435;79;21312;-76
2021/04/10 04:06:24;;;;;;;33.95;13.03;;;;;;;2.83;57.94;98843.61;2266469;78;21276;-73
2021/04/10 04:09:26;;;;;;;32.85;12.55;;;;;;;2.89;57.90;98849.90;2264480;79;21315;-76
2021/04/10 04:12:28;;;;;;;32.53;12.60;;;;;;;2.88;57.71;98846.89;2263594;79;21126;-72
2021/04/10 04:15:30;;;;;;;36.38;14.05;;;;;;;2.79;57.96;98853.66;2263531;79;21114;-74
2021/04/10 04:18:32;;;;;;;38.78;14.13;;;;;;;2.66;58.18;98854.45;2263537;79;21130;-72
2021/04/10 04:21:34;;;;;;;34.63;13.03;;;;;;;2.64;58.53;98851.03;2263515;79;21165;-73
2021/04/10 04:24:36;;;;;;;33.60;13.13;;;;;;;2.52;58.76;98848.35;2263503;79;21531;-76
2021/04/10 04:27:38;;;;;;;36.05;13.18;;;;;;;2.60;58.64;98852.88;2236019;79;21225;-72
2021/04/10 04:30:40;;;;;;;35.17;13.48;;;;;;;2.69;58.65;98853.06;2263593;79;21256;-72
2021/04/10 04:33:42;;;;;;;37.95;13.25;;;;;;;2.88;58.49;98859.02;2263544;79;21145;-72
2021/04/10 04:36:44;;;;;;;35.30;12.93;;;;;;;3.09;58.16;98857.08;2263481;79;21582;-73
2021/04/10 04:39:46;;;;;;;35.50;12.33;;;;;;;3.18;58.16;98853.82;2263864;79;21276;-72
2021/04/10 04:42:48;;;;;;;33.33;12.30;;;;;;;3.34;58.04;98855.48;2263494;79;21127;-71
2021/04/10 04:45:50;;;;;;;41.15;14.83;;;;;;;3.51;57.65;98854.97;2263571;79;21721;-72
2021/04/10 04:48:52;;;;;;;37.70;13.58;;;;;;;3.71;57.63;98851.27;2263462;79;21114;-72
2021/04/10 04:51:54;;;;;;;40.28;14.05;;;;;;;3.87;57.30;98850.78;2263864;79;21253;-72
2021/04/10 04:54:56;;;;;;;36.48;14.58;;;;;;;4.04;57.15;98862.73;2263538;79;21118;-72
2021/04/10 04:57:58;;;;;;;50.88;19.17;;;;;;;4.23;56.91;98867.30;2263529;79;21269;-72
2021/04/10 05:01:00;;;;;;;48.00;22.13;;;;;;;4.42;56.76;98867.04;2263605;79;21713;-72
2021/04/10 05:04:02;;;;;;;49.70;24.30;;;;;;;4.73;56.52;98867.72;2263500;79;21162;-72
2021/04/10 05:07:04;;;;;;;43.58;16.48;;;;;;;5.05;56.16;98869.11;2235963;79;21276;-71
2021/04/10 05:10:06;;;;;;;39.08;14.93;;;;;;;5.26;55.94;98862.68;2263497;79;21559;-71
2021/04/10 05:13:08;;;;;;;35.70;13.80;;;;;;;5.53;55.56;98864.22;2263426;79;21582;-71
2021/04/10 05:16:10;;;;;;;35.40;12.63;;;;;;;5.83;55.32;98863.03;2263825;79;21284;-71
2021/04/10 05:19:11;;;;;;;29.23;11.28;;;;;;;6.05;55.01;98866.95;2263476;79;21170;-71
2021/04/10 05:22:13;;;;;;;31.02;10.90;;;;;;;6.26;54.52;98859.13;2263575;79;21585;-71
2021/04/10 05:25:15;;;;;;;32.03;10.60;;;;;;;6.47;54.09;98869.92;2263481;79;21103;-71
2021/04/10 05:28:17;;;;;;;31.82;11.00;;;;;;;6.67;53.72;98865.61;2263454;79;21110;-71
2021/04/10 05:31:19;;;;;;;29.37;10.05;;;;;;;6.78;53.70;98862.51;2263859;79;21296;-72
2021/04/10 05:34:21;;;;;;;31.60;10.85;;;;;;;6.97;53.50;98867.73;2263582;79;21111;-73
2021/04/10 05:37:23;;;;;;;30.27;10.40;;;;;;;7.05;53.32;98876.92;2263595;79;21713;-72
2021/04/10 05:40:25;;;;;;;29.63;10.88;;;;;;;7.07;53.27;98872.47;2263407;79;21161;-73
2021/04/10 05:43:27;;;;;;;29.65;10.50;;;;;;;7.18;53.19;98881.56;2236135;79;21287;-72
2021/04/10 05:46:29;;;;;;;26.42;10.45;;;;;;;7.29;53.04;98880.61;2263478;79;21102;-71
2021/04/10 05:49:31;;;;;;;36.48;13.85;;;;;;;7.36;52.93;98885.09;2263482;79;21158;-74
2021/04/10 05:52:33;;;;;;;30.92;12.45;;;;;;;7.57;53.06;98891.91;2263594;79;21736;-73
2021/04/10 05:55:35;;;;;;;31.02;11.57;;;;;;;8.04;52.45;98890.97;2263558;79;21697;-72
2021/04/10 05:58:38;;;;;;;29.15;10.65;;;;;;;8.04;52.45;98890.97;2263435;79;21593;-71
2021/04/10 06:01:40;;;;;;;32.88;12.88;;;;;;;8.42;52.50;98886.43;2263570;79;21290;-72
2021/04/10 06:04:42;;;;;;;30.20;10.98;;;;;;;8.54;51.80;98895.44;2263351;79;21256;-71
2021/04/10 06:07:44;;;;;;;32.67;11.80;;;;;;;8.62;51.64;98900.26;2263356;79;21276;-72
2021/04/10 06:10:47;;;;;;;33.78;12.25;;;;;;;8.80;51.45;98903.70;2263461;79;21601;-71
2021/04/10 06:13:49;;;;;;;28.65;10.53;;;;;;;8.86;51.51;98896.83;2263586;79;21166;-73
2021/04/10 06:16:51;;;;;;;27.25;10.55;;;;;;;9.19;51.22;98902.50;2263688;79;21716;-71
2021/04/10 06:19:53;;;;;;;38.00;14.93;;;;;;;9.43;50.54;98900.80;2263933;79;21280;-72
2021/04/10 06:22:55;;;;;;;217.80;92.85;;;;;;;9.62;50.39;98900.13;2263585;79;21158;-70
2021/04/10 06:25:57;;;;;;;294.20;113.10;;;;;;;9.70;49.91;98897.94;2263456;79;21597;-71
2021/04/10 06:28:59;;;;;;;164.72;84.35;;;;;;;9.79;50.15;98903.13;2263429;79;21609;-71
2021/04/10 06:32:01;;;;;;;40.80;19.90;;;;;;;9.99;49.66;98912.47;2263611;79;21765;-71
2021/04/10 06:35:03;;;;;;;29.40;11.28;;;;;;;10.14;49.68;98911.20;2263982;79;21284;-71
2021/04/10 06:38:05;;;;;;;93.47;49.10;;;;;;;10.33;49.04;98910.52;2263565;79;21320;-71
2021/04/10 06:41:07;;;;;;;80.45;46.18;;;;;;;10.64;49.07;98905.27;2263657;79;21265;-72
2021/04/10 06:44:09;;;;;;;33.88;13.58;;;;;;;10.85;48.52;98907.91;2263711;79;21272;-72
2021/04/10 06:47:11;;;;;;;27.85;11.03;;;;;;;11.01;49.00;98907.80;2263718;79;21763;-72
2021/04/10 06:50:13;;;;;;;28.45;11.63;;;;;;;11.23;48.04;98906.03;2263961;79;21136;-72
2021/04/10 06:53:16;;;;;;;316.17;129.38;;;;;;;11.47;48.31;98900.16;2263630;79;21268;-72
2021/04/10 06:56:18;;;;;;;87.67;44.93;;;;;;;11.80;48.03;98900.25;2263865;79;21300;-72
2021/04/10 06:59:20;;;;;;;153.97;74.97;;;;;;;12.07;47.61;98899.43;2263600;79;21717;-71
2021/04/10 07:02:22;;;;;;;91.02;39.83;;;;;;;12.32;47.27;98892.05;2263890;79;21181;-72
2021/04/10 07:05:24;;;;;;;36.88;14.68;;;;;;;12.56;47.01;98884.77;2263577;79;21277;-71
2021/04/10 07:08:26;;;;;;;27.77;8.75;;;;;;;12.91;47.53;98884.95;2235463;79;21331;-72
2021/04/10 07:11:28;;;;;;;39.95;16.75;;;;;;;13.10;44.97;98883.66;2259718;79;21237;-72
2021/04/10 07:14:29;;;;;;;39.27;18.57;;;;;;;13.30;46.39;98887.06;2259327;79;21273;-71
2021/04/10 07:17:31;;;;;;;23.12;7.90;;;;;;;13.47;44.50;98891.13;2259312;79;21759;-71
2021/04/10 07:20:34;;;;;;;22.50;7.50;;;;;;;13.62;44.34;98882.61;2227271;79;21701;-70
2021/04/10 07:23:37;;;;;;;27.70;8.90;;;;;;;13.72;43.88;98884.11;2259194;78;21721;-71
2021/04/10 07:26:39;;;;;;;23.38;7.35;;;;;;;13.81;43.96;98883.91;2259294;79;21988;-71
2021/04/10 07:29:41;;;;;;;23.80;7.92;;;;;;;13.96;43.06;98884.07;2259655;79;21154;-71
2021/04/10 07:32:43;;;;;;;22.37;7.10;;;;;;;14.06;43.54;98875.00;2259280;78;21284;-71
2021/04/10 07:35:45;;;;;;;22.60;6.55;;;;;;;14.19;43.38;98878.88;2259364;79;21268;-71
2021/04/10 07:38:47;;;;;;;19.25;5.85;;;;;;;14.30;41.62;98870.17;2259302;79;21719;-71
2021/04/10 07:41:49;;;;;;;22.20;7.28;;;;;;;14.36;41.59;98877.12;2259321;79;21295;-71
2021/04/10 07:44:51;;;;;;;21.27;7.10;;;;;;;14.47;41.93;98879.45;2259694;79;21138;-71
2021/04/10 07:47:53;;;;;;;21.70;6.42;;;;;;;14.60;41.38;98874.08;2259282;79;21312;-71
2021/04/10 07:50:54;;;;;;;26.05;6.58;;;;;;;14.84;41.60;98870.02;2259346;79;21260;-71
2021/04/10 07:53:58;;;;;;;23.02;6.00;;;;;;;15.00;40.16;98873.66;2259351;78;21269;-71
2021/04/10 07:57:02;;;;;;;24.00;6.55;;;;;;;15.11;39.51;98876.26;2259254;79;21729;-71
2021/04/10 08:00:05;;;;;;;18.07;5.80;;;;;;;15.27;38.39;98877.69;2259059;78;21127;-71
2021/04/10 08:03:07;;;;;;;21.87;6.67;;;;;;;15.37;38.69;98871.56;2259229;79;21091;-71
2021/04/10 08:06:09;;;;;;;22.98;6.10;;;;;;;15.53;39.11;98870.30;2259283;79;21740;-71
2021/04/10 08:09:11;;;;;;;21.12;6.50;;;;;;;15.59;37.84;98875.12;2259187;79;21724;-71
2021/04/10 08:12:13;;;;;;;26.17;6.47;;;;;;;15.73;38.54;98872.66;2259297;79;21291;-71
2021/04/10 08:15:15;;;;;;;21.97;6.95;;;;;;;15.93;38.57;98869.73;2259760;79;21127;-71
2021/04/10 08:18:17;;;;;;;20.85;6.72;;;;;;;16.09;37.55;98863.53;2259337;79;21118;-71
2021/04/10 08:21:19;;;;;;;22.80;6.90;;;;;;;16.24;38.40;98861.41;2259283;79;21716;-71
2021/04/10 08:24:21;;;;;;;19.15;5.70;;;;;;;16.42;37.66;98853.73;2259140;79;21134;-71
2021/04/10 08:27:23;;;;;;;22.50;6.47;;;;;;;16.56;37.28;98859.65;2259238;79;21277;-71
2021/04/10 08:30:25;;;;;;;24.10;6.70;;;;;;;16.58;36.85;98861.20;2259242;79;21708;-71
2021/04/10 08:33:27;;;;;;;20.75;6.40;;;;;;;16.58;36.26;98863.02;2259267;79;21264;-71
2021/04/10 08:36:30;;;;;;;;;;;;;;;16.67;36.66;98870.17;2262271;79;21162;-71
2021/04/10 08:39:32;;;;;;;23.67;6.58;;;;;;;16.89;35.76;98868.34;2259314;79;20455;-71
2021/04/10 08:42:34;;;;;;;23.42;6.92;;;;;;;17.01;35.86;98862.00;2227499;79;21728;-71
2021/04/10 08:45:36;;;;;;;21.25;6.80;;;;;;;17.22;36.02;98857.10;2259249;79;21264;-71
2021/04/10 08:48:38;;;;;;;21.68;6.60;;;;;;;17.40;33.74;98853.33;2259334;79;21670;-72
2021/04/10 08:51:40;;;;;;;27.45;6.58;;;;;;;17.34;35.06;98857.83;2259232;79;21280;-72
2021/04/10 08:54:42;;;;;;;22.32;6.78;;;;;;;17.53;34.79;98845.94;2259166;79;21292;-71
2021/04/10 08:57:44;;;;;;;;;;;;;;;17.36;34.16;98863.84;2261741;79;21292;-71
2021/04/10 09:00:46;;;;;;;22.15;6.72;;;;;;;17.48;32.89;98859.62;2259346;79;20531;-71
2021/04/10 09:03:48;;;;;;;22.48;7.00;;;;;;;17.63;34.96;98856.06;2259102;79;21713;-71
2021/04/10 09:06:50;;;;;;;21.93;6.45;;;;;;;17.97;34.17;98864.13;2259342;79;21589;-71
2021/04/10 09:09:53;;;;;;;20.43;6.53;;;;;;;17.96;31.40;98857.17;2259196;79;21277;-71
2021/04/10 09:12:54;;;;;;;31.27;12.80;;;;;;;17.98;32.49;98860.02;2227565;79;21685;-71
2021/04/10 09:15:57;;;;;;;19.45;6.20;;;;;;;18.26;33.19;98858.83;2259070;79;21724;-71
2021/04/10 09:18:59;;;;;;;24.65;6.78;;;;;;;18.56;31.17;98854.30;2259210;78;21142;-71
2021/04/10 09:22:01;;;;;;;20.62;5.85;;;;;;;18.54;31.82;98857.57;2259294;79;21300;-71
2021/04/10 09:25:04;;;;;;;20.40;6.45;;;;;;;18.32;29.96;98857.42;2259100;79;21708;-71
2021/04/10 09:28:06;;;;;;;21.90;6.53;;;;;;;18.12;31.14;98847.31;2259173;79;21724;-70
2021/04/10 09:31:08;;;;;;;22.05;6.62;;;;;;;18.08;32.21;98859.19;2259610;79;21268;-71
2021/04/10 09:34:10;;;;;;;20.45;6.45;;;;;;;18.26;30.47;98858.83;2259608;79;21292;-71
2021/04/10 09:37:12;;;;;;;20.65;6.55;;;;;;;18.27;29.82;98860.98;2259208;79;21285;-70
2021/04/10 09:40:18;;;;;;;21.27;6.50;;;;;;;18.15;30.68;98861.12;2259159;79;21291;-71
2021/04/10 09:43:20;;;;;;;21.50;6.10;;;;;;;18.10;31.28;98867.36;2227147;79;21165;-71
2021/04/10 09:46:22;;;;;;;;;;;;;;;18.30;29.51;98868.18;2261789;79;21260;-71
2021/04/10 09:49:24;;;;;;;22.32;7.08;;;;;;;18.36;31.25;98854.83;2259122;79;20408;-71
2021/04/10 09:52:27;;;;;;;19.90;6.28;;;;;;;18.30;30.45;98866.00;2259214;79;21268;-71
2021/04/10 09:55:29;;;;;;;22.42;6.97;;;;;;;18.36;30.65;98868.11;2259076;78;21280;-71
2021/04/10 09:58:31;;;;;;;24.47;6.95;;;;;;;18.52;30.63;98865.68;2259411;78;21138;-71
2021/04/10 10:01:33;;;;;;;23.92;7.10;;;;;;;18.79;30.67;98871.19;2259207;79;21284;-71
2021/04/10 10:04:35;;;;;;;21.65;7.08;;;;;;;19.04;27.92;98843.98;2259286;79;21724;-71
2021/04/10 10:07:37;;;;;;;25.65;7.65;;;;;;;19.04;27.92;98843.98;2259477;79;21697;-71
2021/04/10 10:10:40;;;;;;;21.30;7.55;;;;;;;18.67;29.06;98851.44;2259182;78;21713;-71
2021/04/10 10:13:42;;;;;;;;;;;;;;;18.53;29.59;98859.40;2262440;79;21169;-71
2021/04/10 10:16:44;;;;;;;20.90;6.70;;;;;;;18.67;29.75;98858.08;2259404;79;20433;-71
2021/04/10 10:19:46;;;;;;;22.22;6.90;;;;;;;18.93;29.50;98854.80;2259329;79;21276;-71
2021/04/10 10:22:48;;;;;;;23.92;7.47;;;;;;;19.12;28.95;98858.36;2259402;79;21717;-71
2021/04/10 10:25:50;;;;;;;;;;;;;;;19.46;29.71;98853.77;2262330;78;21130;-71
2021/04/10 10:28:52;;;;;;;25.52;7.47;;;;;;;19.45;26.80;98861.40;2259342;79;20248;-72
2021/04/10 10:31:54;;;;;;;;;;;;;;;18.79;26.59;98858.77;2261951;79;21126;-71
2021/04/10 10:34:56;;;;;;;22.70;6.70;;;;;;;18.78;29.96;98853.59;2259691;79;20153;-71
2021/04/10 10:37:58;;;;;;;20.37;6.00;;;;;;;19.17;28.21;98848.96;2259351;79;21322;-71
2021/04/10 10:41:00;;;;;;;19.52;6.17;;;;;;;19.29;29.52;98864.72;2259482;79;21732;-71
2021/04/10 10:44:02;;;;;;;19.15;5.87;;;;;;;19.27;29.17;98858.22;2259466;79;21304;-71
2021/04/10 10:47:04;;;;;;;22.22;6.67;;;;;;;19.39;28.32;98857.04;2259375;79;21141;-71
2021/04/10 10:50:06;;;;;;;23.65;6.90;;;;;;;19.82;28.72;98851.99;2259459;79;21296;-72
2021/04/10 10:53:08;;;;;;;23.25;6.42;;;;;;;20.11;27.75;98852.23;2259612;78;21130;-71
2021/04/10 10:56:11;;;;;;;20.77;6.20;;;;;;;20.31;27.62;98848.07;2259220;79;21164;-71
2021/04/10 10:59:13;;;;;;;;;;;;;;;20.01;25.94;98849.69;2261993;79;21261;-71
2021/04/10 11:02:15;;;;;;;21.33;6.80;;;;;;;20.10;27.43;98839.08;2259705;79;20141;-71
2021/04/10 11:05:17;;;;;;;19.48;5.75;;;;;;;20.10;26.14;98845.73;2259363;79;21268;-71
2021/04/10 11:08:19;;;;;;;22.27;6.80;;;;;;;19.80;25.23;98850.50;2259325;79;21768;-71
2021/04/10 11:11:21;;;;;;;20.48;6.42;;;;;;;19.98;26.76;98843.31;2265117;79;21673;-71
2021/04/10 11:14:23;;;;;;;;;;;;;;;20.12;26.30;98831.29;2269213;78;21284;-71
2021/04/10 11:17:25;;;;;;;18.75;5.97;;;;;;;20.23;26.92;98837.70;2266373;79;20133;-71
2021/04/10 11:20:27;;;;;;;;;;;;;;;20.66;26.03;98835.16;2269185;79;21695;-71
2021/04/10 11:23:29;;;;;;;20.95;6.37;;;;;;;20.97;23.69;98833.83;2266498;79;20224;-71
2021/04/10 11:26:31;;;;;;;21.82;7.05;;;;;;;20.81;25.34;98836.75;2266377;78;21150;-71
2021/04/10 11:29:34;;;;;;;;;;;;;;;20.53;26.40;98834.25;2269134;79;21280;-71
2021/04/10 11:32:37;;;;;;;;;;;;;;;20.50;26.21;98837.70;2269047;79;20220;-71
2021/04/10 11:35:39;;;;;;;18.17;5.80;;;;;;;20.43;26.17;98836.19;2266327;79;20148;-71
2021/04/10 11:38:42;;;;;;;;;;;;;;;20.38;26.48;98844.63;2269257;78;21316;-71
2021/04/10 11:41:44;;;;;;;19.32;6.00;;;;;;;20.52;26.47;98827.74;2266430;79;20407;-68
2021/04/10 11:44:46;;;;;;;;;;;;;;;20.45;26.83;98834.19;2269040;78;21296;-69
2021/04/10 11:47:48;;;;;;;22.30;6.25;;;;;;;20.63;25.82;98824.81;2266792;79;20228;-69
2021/04/10 11:50:50;;;;;;;;;;;;;;;20.70;26.45;98817.89;2269058;78;21117;-68
2021/04/10 11:53:52;;;;;;;17.87;5.67;;;;;;;21.22;26.05;98821.41;2266599;79;20543;-69
2021/04/10 11:56:54;;;;;;;19.30;5.45;;;;;;;20.82;22.96;98817.11;2266665;78;21300;-68
2021/04/10 11:59:57;;;;;;;18.27;5.83;;;;;;;20.49;26.49;98820.07;2266534;78;21581;-68
2021/04/10 12:02:59;;;;;;;;;;;;;;;20.79;25.58;98817.43;2268990;78;21680;-69
2021/04/10 12:06:02;;;;;;;17.98;4.85;;;;;;;20.72;25.15;98822.55;2266452;79;20173;-68
2021/04/10 12:09:04;;;;;;;;;;;;;;;20.53;23.32;98827.58;2268849;78;21308;-68
2021/04/10 12:12:06;;;;;;;17.85;5.55;;;;;;;20.23;24.96;98806.25;2259316;79;20428;-69
2021/04/10 12:15:08;;;;;;;19.77;5.58;;;;;;;20.17;25.14;98822.35;2259301;79;21103;-68
2021/04/10 12:18:10;;;;;;;;;;;;;;;20.62;25.10;98811.66;2230124;79;21272;-68
2021/04/10 12:21:12;;;;;;;20.90;5.95;;;;;;;21.08;23.86;98822.37;2259360;79;20455;-68
2021/04/10 12:24:14;;;;;;;15.98;4.70;;;;;;;21.04;25.40;98814.35;2259379;79;21308;-69
2021/04/10 12:27:15;;;;;;;;;;;;;;;21.23;23.74;98803.94;2261835;79;21123;-69
2021/04/10 12:30:17;;;;;;;17.15;4.75;;;;;;;21.33;21.96;98806.44;2259403;79;20224;-68
2021/04/10 12:33:20;;;;;;;16.50;4.62;;;;;;;21.38;24.17;98805.97;2259096;79;21776;-68
2021/04/10 12:36:22;;;;;;;15.63;4.45;;;;;;;21.51;21.82;98812.16;2259363;78;21312;-69
2021/04/10 12:39:24;;;;;;;;;;;;;;;21.57;23.62;98804.34;2261803;79;21257;-68
2021/04/10 12:42:26;;;;;;;;;;;;;;;21.51;24.49;98783.67;2261938;79;20232;-68
2021/04/10 12:45:28;;;;;;;20.25;5.25;;;;;;;21.07;22.49;98823.86;2259231;79;20122;-68
2021/04/10 12:48:30;;;;;;;17.77;4.40;;;;;;;20.53;23.40;98814.27;2259108;79;21573;-69
2021/04/10 12:51:32;;;;;;;;;;;;;;;20.34;24.58;98798.48;2261823;79;21284;-69
2021/04/10 12:54:34;;;;;;;18.85;5.20;;;;;;;20.34;24.04;98803.34;2259591;79;20232;-69
2021/04/10 12:57:37;;;;;;;19.42;5.03;;;;;;;20.15;25.12;98810.18;2258890;79;21130;-69
2021/04/10 13:00:39;;;;;;;;;;;;;;;20.16;25.11;98803.37;2261769;79;21268;-69
2021/04/10 13:03:41;;;;;;;17.17;4.35;;;;;;;20.29;25.00;98800.80;2259491;79;20260;-70
2021/04/10 13:06:43;;;;;;;18.20;4.97;;;;;;;20.00;25.68;98802.75;2259233;79;21133;-69
2021/04/10 13:09:45;;;;;;;;;;;;;;;19.83;25.25;98819.08;2262635;79;21673;-69
2021/04/10 13:12:47;;;;;;;18.48;5.05;;;;;;;19.80;24.29;98814.06;2264052;78;20224;-69
2021/04/10 13:15:50;;;;;;;17.90;5.22;;;;;;;19.70;24.39;98829.25;2263757;78;21260;-68
2021/04/10 13:18:52;;;;;;;19.73;4.97;;;;;;;19.83;24.44;98816.92;2263719;78;21301;-68
2021/04/10 13:21:54;;;;;;;23.38;5.70;;;;;;;19.86;23.75;98827.26;2263522;78;21622;-69
2021/04/10 13:24:56;;;;;;;19.52;5.62;;;;;;;19.92;24.64;98817.83;2263490;78;21146;-69
2021/04/10 13:27:58;;;;;;;;;;;;;;;20.48;25.52;98807.73;2238612;79;21283;-69
2021/04/10 13:31:00;;;;;;;20.82;5.55;;;;;;;20.55;25.84;98808.27;2263521;79;20244;-69
2021/04/10 13:34:04;;;;;;;17.60;5.20;;;;;;;20.42;24.81;98814.02;2263386;78;21121;-68
2021/04/10 13:37:06;;;;;;;;;;;;;;;20.28;24.93;98805.78;2266019;78;21158;-69
2021/04/10 13:40:08;;;;;;;20.20;5.92;;;;;;;20.21;24.11;98811.73;2263660;79;20463;-68
2021/04/10 13:43:10;;;;;;;21.65;6.30;;;;;;;20.06;26.70;98816.77;2264104;78;21275;-68
2021/04/10 13:46:16;;;;;;;20.30;5.45;;;;;;;20.31;27.23;98800.13;2263830;78;21277;-68
2021/04/10 13:49:16;;;;;;;19.73;6.03;;;;;;;20.27;25.50;98810.28;2263280;78;21121;-68
2021/04/10 13:52:18;;;;;;;18.60;5.62;;;;;;;19.97;26.50;98811.53;2263835;78;21284;-68
2021/04/10 13:55:20;;;;;;;;;;;;;;;20.33;26.26;98805.65;2266546;78;21283;-68
2021/04/10 13:58:22;;;;;;;21.85;6.67;;;;;;;20.63;26.88;98803.97;2263729;79;20511;-69
2021/04/10 14:01:27;;;;;;;19.45;5.97;;;;;;;20.93;25.33;98794.64;2263585;78;21257;-69
2021/04/10 14:04:29;;;;;;;19.25;5.58;;;;;;;20.98;24.85;98809.67;2263925;78;21279;-69
2021/04/10 14:07:31;;;;;;;;;;;;;;;20.59;26.48;98809.63;2266254;78;21288;-69
2021/04/10 14:10:33;;;;;;;17.45;5.62;;;;;;;19.88;26.70;98817.28;2263605;79;20239;-68
2021/04/10 14:13:35;;;;;;;19.15;5.72;;;;;;;19.39;26.83;98810.50;2264069;78;21217;-69